createdAt,value
2022-09-09T00:02:05.521Z,100322.41
2022-09-09T00:04:34.845Z,100320.41
2022-09-09T00:07:17.187Z,100321.38
2022-09-09T00:09:54.626Z,100327.13
2022-09-09T00:12:34.935Z,100333.66
2022-09-09T00:15:13.781Z,100329.84
2022-09-09T00:18:10.331Z,100325.66
2022-09-09T00:20:44.927Z,100319.19
2022-09-09T00:23:25.871Z,100323.03
2022-09-09T00:26:21.394Z,100318.50
2022-09-09T00:29:13.283Z,100315.59
2022-09-09T00:31:40.595Z,100317.16
2022-09-09T00:34:17.350Z,100312.81
2022-09-09T00:36:47.228Z,100312.41
2022-09-09T00:39:36.199Z,100306.75
2022-09-09T00:42:26.348Z,100313.38
2022-09-09T00:45:18.354Z,100304.97
2022-09-09T00:47:51.449Z,100310.38
2022-09-09T00:50:36.475Z,100314.97
2022-09-09T00:53:22.264Z,100315.84
2022-09-09T00:55:49.870Z,100316.69
2022-09-09T00:58:16.868Z,100318.00
2022-09-09T01:01:03.751Z,100318.56
2022-09-09T01:03:46.535Z,100315.69
2022-09-09T01:06:16.025Z,100315.69
2022-09-09T01:09:11.663Z,100319.44
2022-09-09T01:11:51.107Z,100322.88
2022-09-09T01:14:36.540Z,100324.34
2022-09-09T01:17:32.272Z,100328.28
2022-09-09T01:20:18.687Z,100322.97
2022-09-09T01:22:57.056Z,100327.28
2022-09-09T01:25:45.102Z,100321.75
2022-09-09T01:28:17.450Z,100318.25
2022-09-09T01:30:44.550Z,100320.66
2022-09-09T01:33:17.220Z,100331.53
2022-09-09T01:35:47.087Z,100321.88
2022-09-09T01:38:15.033Z,100320.91
2022-09-09T01:40:42.096Z,100321.59
2022-09-09T01:43:09.436Z,100321.59
2022-09-09T01:45:37.135Z,100318.13
2022-09-09T01:48:04.322Z,100320.22
2022-09-09T01:50:31.437Z,100315.84
2022-09-09T01:52:59.978Z,100320.31
2022-09-09T01:55:33.664Z,100316.97
2022-09-09T01:58:07.542Z,100315.28
2022-09-09T02:00:38.669Z,100313.59
2022-09-09T02:03:13.071Z,100316.38
2022-09-09T02:05:42.576Z,100315.94
2022-09-09T02:08:16.842Z,100323.28
2022-09-09T02:10:56.632Z,100321.63
2022-09-09T02:13:23.974Z,100334.75
2022-09-09T02:15:59.390Z,100330.41
2022-09-09T02:18:28.124Z,100338.50
2022-09-09T02:20:55.202Z,100335.97
2022-09-09T02:23:22.386Z,100344.31
2022-09-09T02:25:52.541Z,100344.69
2022-09-09T02:28:22.236Z,100336.88
2022-09-09T02:30:56.132Z,100334.22
2022-09-09T02:33:29.770Z,100331.44
2022-09-09T02:36:02.698Z,100330.59
2022-09-09T02:38:31.621Z,100328.19
2022-09-09T02:40:59.610Z,100328.19
2022-09-09T02:43:26.684Z,100335.31
2022-09-09T02:46:22.073Z,100338.94
2022-09-09T02:49:05.751Z,100330.00
2022-09-09T02:52:03.293Z,100330.00
2022-09-09T02:54:37.130Z,100318.56
2022-09-09T02:57:10.031Z,100322.19
2022-09-09T02:59:37.501Z,100324.81
2022-09-09T03:02:05.008Z,100319.78
2022-09-09T03:04:32.141Z,100325.22
2022-09-09T03:06:59.665Z,100328.00
2022-09-09T03:09:29.249Z,100329.47
2022-09-09T03:11:56.397Z,100329.97
2022-09-09T03:14:25.983Z,100339.59
2022-09-09T03:16:54.018Z,100342.13
2022-09-09T03:19:22.001Z,100339.22
2022-09-09T03:21:49.123Z,100342.59
2022-09-09T03:24:16.164Z,100345.97
2022-09-09T03:26:46.880Z,100347.88
2022-09-09T03:29:13.981Z,100349.59
2022-09-09T03:31:41.650Z,100352.34
2022-09-09T03:34:08.820Z,100349.00
2022-09-09T03:36:36.145Z,100359.97
2022-09-09T03:39:04.173Z,100355.34
2022-09-09T03:41:31.724Z,100352.09
2022-09-09T03:43:58.808Z,100350.28
2022-09-09T03:46:26.903Z,100350.28
2022-09-09T03:48:53.999Z,100357.47
2022-09-09T03:51:21.115Z,100362.31
2022-09-09T03:53:48.632Z,100359.34
2022-09-09T03:56:16.309Z,100361.75
2022-09-09T03:58:43.912Z,100362.59
2022-09-09T04:01:15.541Z,100357.16
2022-09-09T04:03:43.295Z,100352.34
2022-09-09T04:06:12.811Z,100349.56
2022-09-09T04:08:40.314Z,100351.66
2022-09-09T04:11:07.810Z,100346.81
2022-09-09T04:13:36.068Z,100348.50
2022-09-09T04:16:04.739Z,100348.50
2022-09-09T04:18:32.238Z,100346.81
2022-09-09T04:20:59.726Z,100340.41
2022-09-09T04:23:29.977Z,100349.22
2022-09-09T04:25:58.619Z,100351.75
2022-09-09T04:28:27.881Z,100354.28
2022-09-09T04:30:55.124Z,100355.94
2022-09-09T04:33:22.495Z,100359.56
2022-09-09T04:35:50.642Z,100372.94
2022-09-09T04:38:18.533Z,100371.28
2022-09-09T04:40:47.728Z,100366.56
2022-09-09T04:43:17.880Z,100368.03
2022-09-09T04:45:45.005Z,100364.16
2022-09-09T04:48:12.108Z,100373.66
2022-09-09T04:50:39.197Z,100368.97
2022-09-09T04:53:06.456Z,100368.97
2022-09-09T04:55:35.813Z,100374.13
2022-09-09T04:58:08.277Z,100376.31
2022-09-09T05:00:36.795Z,100388.00
2022-09-09T05:03:07.318Z,100388.59
2022-09-09T05:05:37.342Z,100386.66
2022-09-09T05:08:05.991Z,100396.06
2022-09-09T05:10:34.195Z,100395.94
2022-09-09T05:13:01.277Z,100388.81
2022-09-09T05:15:28.412Z,100392.06
2022-09-09T05:18:01.993Z,100390.53
2022-09-09T05:20:29.400Z,100388.81
2022-09-09T05:22:57.560Z,100391.47
2022-09-09T05:25:28.169Z,100387.88
2022-09-09T05:27:55.355Z,100384.34
2022-09-09T05:30:23.684Z,100382.69
2022-09-09T05:32:51.099Z,100389.31
2022-09-09T05:35:20.072Z,100392.81
2022-09-09T05:37:47.247Z,100390.75
2022-09-09T05:40:14.590Z,100384.50
2022-09-09T05:42:42.427Z,100380.88
2022-09-09T05:45:10.148Z,100391.94
2022-09-09T05:47:38.207Z,100379.56
2022-09-09T05:50:05.868Z,100388.06
2022-09-09T05:52:33.615Z,100382.53
2022-09-09T05:55:00.743Z,100386.41
2022-09-09T05:57:27.852Z,100389.88
2022-09-09T05:59:54.935Z,100394.72
2022-09-09T06:02:22.091Z,100392.53
2022-09-09T06:04:49.310Z,100395.78
2022-09-09T06:07:16.379Z,100401.66
2022-09-09T06:09:43.764Z,100403.94
2022-09-09T06:12:10.855Z,100398.16
2022-09-09T06:14:37.958Z,100408.78
2022-09-09T06:17:05.079Z,100414.53
2022-09-09T06:19:32.184Z,100417.66
2022-09-09T06:21:59.739Z,100414.06
2022-09-09T06:24:26.852Z,100413.69
2022-09-09T06:26:55.027Z,100401.97
2022-09-09T06:29:22.116Z,100416.94
2022-09-09T06:31:49.297Z,100407.03
2022-09-09T06:34:16.421Z,100404.97
2022-09-09T06:36:43.683Z,100404.47
2022-09-09T06:39:14.770Z,100418.56
2022-09-09T06:41:43.532Z,100426.41
2022-09-09T06:44:12.742Z,100430.22
2022-09-09T06:46:40.684Z,100424.09
2022-09-09T06:49:09.816Z,100432.56
2022-09-09T06:51:43.392Z,100430.75
2022-09-09T06:54:11.527Z,100426.03
2022-09-09T06:56:43.952Z,100435.41
2022-09-09T06:59:11.776Z,100426.22
2022-09-09T07:01:44.846Z,100426.22
2022-09-09T07:04:12.328Z,100420.69
2022-09-09T07:06:41.396Z,100420.16
2022-09-09T07:09:10.686Z,100423.75
2022-09-09T07:11:49.669Z,100427.03
2022-09-09T07:14:17.782Z,100431.56
2022-09-09T07:16:45.886Z,100430.06
2022-09-09T07:19:13.646Z,100432.34
2022-09-09T07:21:41.332Z,100428.06
2022-09-09T07:24:10.997Z,100434.03
2022-09-09T07:26:39.533Z,100426.50
2022-09-09T07:29:06.830Z,100424.44
2022-09-09T07:31:37.347Z,100433.28
2022-09-09T07:34:05.245Z,100432.63
2022-09-09T07:36:38.827Z,100431.97
2022-09-09T07:39:08.500Z,100431.28
2022-09-09T07:41:39.007Z,100435.13
2022-09-09T07:44:07.841Z,100433.72
2022-09-09T07:46:35.794Z,100432.13
2022-09-09T07:49:04.558Z,100442.78
2022-09-09T07:51:37.002Z,100445.19
2022-09-09T07:54:06.578Z,100435.72
2022-09-09T07:56:34.128Z,100438.22
2022-09-09T07:59:02.033Z,100445.53
2022-09-09T08:01:40.066Z,100446.38
2022-09-09T08:04:16.512Z,100444.00
2022-09-09T08:06:45.637Z,100449.63
2022-09-09T08:09:13.450Z,100449.06
2022-09-09T08:11:41.631Z,100451.59
2022-09-09T08:14:09.711Z,100452.28
2022-09-09T08:16:39.483Z,100449.63
2022-09-09T08:19:08.226Z,100453.44
2022-09-09T08:21:37.663Z,100458.38
2022-09-09T08:24:06.037Z,100454.44
2022-09-09T08:26:47.346Z,100456.69
2022-09-09T08:29:17.404Z,100464.41
2022-09-09T08:31:45.955Z,100459.19
2022-09-09T08:34:13.281Z,100459.75
2022-09-09T08:36:43.489Z,100458.06
2022-09-09T08:39:12.544Z,100450.66
2022-09-09T08:41:52.324Z,100455.97
2022-09-09T08:44:28.421Z,100455.97
2022-09-09T08:47:16.370Z,100460.56
2022-09-09T08:50:14.043Z,100464.91
2022-09-09T08:52:53.764Z,100465.47
2022-09-09T08:55:42.769Z,100459.44
2022-09-09T08:58:16.101Z,100462.50
2022-09-09T09:01:14.156Z,100466.16
2022-09-09T09:03:56.246Z,100459.81
2022-09-09T09:06:32.019Z,100464.19
2022-09-09T09:09:06.501Z,100461.78
2022-09-09T09:11:42.816Z,100463.16
2022-09-09T09:14:24.286Z,100468.50
2022-09-09T09:17:16.814Z,100467.63
2022-09-09T09:19:44.213Z,100468.16
2022-09-09T09:22:30.202Z,100463.47
2022-09-09T09:25:21.275Z,100467.53
2022-09-09T09:28:07.152Z,100464.44
2022-09-09T09:30:41.168Z,100465.69
2022-09-09T09:33:51.066Z,100459.06
2022-09-09T09:36:18.167Z,100461.97
2022-09-09T09:41:44.446Z,100459.19
2022-09-09T09:44:31.952Z,100454.56
2022-09-09T09:47:09.281Z,100458.00
2022-09-09T09:49:36.560Z,100464.25
2022-09-09T09:52:05.008Z,100465.84
2022-09-09T09:54:39.259Z,100463.44
2022-09-09T09:57:13.943Z,100467.47
2022-09-09T09:59:41.291Z,100456.75
2022-09-09T10:02:18.785Z,100456.66
2022-09-09T10:04:48.959Z,100458.56
2022-09-09T10:07:21.430Z,100462.16
2022-09-09T10:09:56.329Z,100464.66
2022-09-09T10:12:31.988Z,100456.47
2022-09-09T10:15:23.671Z,100462.53
2022-09-09T10:18:05.334Z,100461.06
2022-09-09T10:20:45.412Z,100464.63
2022-09-09T10:23:41.379Z,100466.34
2022-09-09T10:26:33.229Z,100464.28
2022-09-09T10:29:28.194Z,100465.63
2022-09-09T10:32:04.115Z,100466.00
2022-09-09T10:35:03.919Z,100471.41
2022-09-09T10:37:33.990Z,100472.47
2022-09-09T10:40:27.117Z,100470.97
2022-09-09T10:42:59.447Z,100474.88
2022-09-09T10:45:41.852Z,100481.94
2022-09-09T10:48:29.964Z,100480.94
2022-09-09T10:51:22.658Z,100475.25
2022-09-09T10:54:02.464Z,100478.31
2022-09-09T10:56:30.188Z,100475.44
2022-09-09T10:59:01.970Z,100471.63
2022-09-09T11:01:41.147Z,100480.88
2022-09-09T11:04:17.726Z,100476.75
2022-09-09T11:06:49.246Z,100474.31
2022-09-09T11:09:24.348Z,100471.81
2022-09-09T11:11:59.264Z,100461.78
2022-09-09T11:14:41.207Z,100463.78
2022-09-09T11:17:13.768Z,100460.47
2022-09-09T11:19:42.376Z,100481.53
2022-09-09T11:22:22.992Z,100473.16
2022-09-09T11:24:57.962Z,100468.50
2022-09-09T11:27:32.857Z,100471.69
2022-09-09T11:30:44.208Z,100479.03
2022-09-09T11:33:25.684Z,100474.19
2022-09-09T11:36:09.627Z,100473.03
2022-09-09T11:38:53.247Z,100469.66
2022-09-09T11:41:22.022Z,100480.03
2022-09-09T11:43:53.046Z,100478.66
2022-09-09T11:46:22.757Z,100472.66
2022-09-09T11:49:01.997Z,100464.47
2022-09-09T11:51:31.485Z,100456.44
2022-09-09T11:54:02.194Z,100454.88
2022-09-09T11:56:45.604Z,100455.38
2022-09-09T11:59:24.390Z,100455.72
2022-09-09T12:01:57.963Z,100451.00
2022-09-09T12:04:25.548Z,100441.69
2022-09-09T12:07:06.884Z,100444.41
2022-09-09T12:09:45.704Z,100445.91
2022-09-09T12:12:12.644Z,100442.97
2022-09-09T12:14:42.692Z,100426.03
2022-09-09T12:17:15.535Z,100432.69
2022-09-09T12:19:43.132Z,100429.19
2022-09-09T12:22:28.961Z,100418.84
2022-09-09T12:25:23.632Z,100421.16
2022-09-09T12:28:14.215Z,100428.97
2022-09-09T12:30:54.274Z,100423.19
2022-09-09T12:33:22.808Z,100430.03
2022-09-09T12:35:55.881Z,100437.19
2022-09-09T12:38:34.099Z,100422.72
2022-09-09T12:41:01.454Z,100418.78
2022-09-09T12:43:29.458Z,100420.28
2022-09-09T12:46:01.669Z,100418.31
2022-09-09T12:48:33.932Z,100420.56
2022-09-09T12:51:01.382Z,100412.97
2022-09-09T12:53:33.078Z,100413.81
2022-09-09T12:56:11.151Z,100412.72
2022-09-09T12:58:39.377Z,100408.72
2022-09-09T13:01:07.280Z,100405.66
2022-09-09T13:03:43.884Z,100411.81
2022-09-09T13:06:13.458Z,100411.13
2022-09-09T13:08:40.918Z,100416.50
2022-09-09T13:11:11.612Z,100415.75
2022-09-09T13:13:42.844Z,100429.94
2022-09-09T13:16:24.043Z,100421.91
2022-09-09T13:18:51.796Z,100427.91
2022-09-09T13:21:19.781Z,100425.09
2022-09-09T13:23:51.635Z,100414.84
2022-09-09T13:26:26.759Z,100413.25
2022-09-09T13:28:55.096Z,100408.06
2022-09-09T13:31:33.637Z,100403.31
2022-09-09T13:34:15.341Z,100406.44
2022-09-09T13:36:42.485Z,100395.47
2022-09-09T13:39:19.874Z,100398.88
2022-09-09T13:41:47.748Z,100386.66
2022-09-09T13:44:29.875Z,100393.88
2022-09-09T13:47:02.827Z,100402.75
2022-09-09T13:49:34.448Z,100392.53
2022-09-09T13:52:12.910Z,100391.53
2022-09-09T13:54:40.641Z,100390.22
2022-09-09T13:57:21.958Z,100401.41
2022-09-09T14:00:05.738Z,100392.81
2022-09-09T14:02:34.714Z,100391.84
2022-09-09T14:05:02.021Z,100396.03
2022-09-09T14:07:29.920Z,100396.19
2022-09-09T14:09:57.197Z,100397.00
2022-09-09T14:12:25.015Z,100412.00
2022-09-09T14:14:52.419Z,100404.59
2022-09-09T14:17:19.506Z,100402.16
2022-09-09T14:19:46.916Z,100399.34
2022-09-09T14:22:14.167Z,100399.59
2022-09-09T14:24:41.870Z,100392.81
2022-09-09T14:27:09.636Z,100391.72
2022-09-09T14:29:36.716Z,100391.94
2022-09-09T14:32:03.961Z,100399.13
2022-09-09T14:34:33.275Z,100404.22
2022-09-09T14:37:00.400Z,100398.88
2022-09-09T14:39:27.698Z,100396.19
2022-09-09T14:41:54.772Z,100383.09
2022-09-09T14:44:22.815Z,100382.03
2022-09-09T14:46:52.757Z,100387.91
2022-09-09T14:49:19.868Z,100397.63
2022-09-09T14:51:46.970Z,100403.78
2022-09-09T14:54:14.716Z,100396.81
2022-09-09T14:56:41.856Z,100397.59
2022-09-09T14:59:09.004Z,100404.88
2022-09-09T15:01:36.318Z,100392.09
2022-09-09T15:04:05.481Z,100392.97
2022-09-09T15:06:34.703Z,100398.75
2022-09-09T15:09:02.229Z,100398.38
2022-09-09T15:11:35.427Z,100395.63
2022-09-09T15:14:02.473Z,100392.94
2022-09-09T15:16:29.804Z,100390.63
2022-09-09T15:18:58.581Z,100391.22
2022-09-09T15:21:28.562Z,100392.53
2022-09-09T15:23:56.473Z,100376.78
2022-09-09T15:26:24.041Z,100380.22
2022-09-09T15:28:51.772Z,100386.41
2022-09-09T15:31:22.211Z,100383.06
2022-09-09T15:33:50.663Z,100386.03
2022-09-09T15:36:25.155Z,100385.38
2022-09-09T15:38:53.215Z,100382.84
2022-09-09T15:41:22.055Z,100376.19
2022-09-09T15:43:51.374Z,100370.78
2022-09-09T15:46:18.473Z,100366.81
2022-09-09T15:48:47.407Z,100362.78
2022-09-09T15:51:38.056Z,100359.22
2022-09-09T15:54:03.137Z,100352.78
2022-09-09T15:56:31.450Z,100340.72
2022-09-09T15:58:58.565Z,100346.72
2022-09-09T16:01:26.888Z,100356.09
2022-09-09T16:03:54.413Z,100360.53
2022-09-09T16:06:23.379Z,100373.69
2022-09-09T16:08:52.688Z,100380.03
2022-09-09T16:11:25.389Z,100380.13
2022-09-09T16:13:53.574Z,100382.59
2022-09-09T16:16:23.188Z,100381.09
2022-09-09T16:18:52.914Z,100379.41
2022-09-09T16:21:28.064Z,100391.03
2022-09-09T16:23:55.237Z,100407.47
2022-09-09T16:26:23.335Z,100404.47
2022-09-09T16:28:50.611Z,100407.19
2022-09-09T16:31:20.724Z,100406.78
2022-09-09T16:33:48.639Z,100406.34
2022-09-09T16:36:21.037Z,100415.34
2022-09-09T16:38:48.397Z,100415.66
2022-09-09T16:41:15.713Z,100415.13
2022-09-09T16:43:42.932Z,100412.06
2022-09-09T16:46:20.423Z,100408.16
2022-09-09T16:48:48.510Z,100395.59
2022-09-09T16:51:24.928Z,100402.28
2022-09-09T16:53:53.221Z,100407.59
2022-09-09T16:56:26.233Z,100401.63
2022-09-09T16:58:58.565Z,100399.56
2022-09-09T17:01:27.234Z,100401.94
2022-09-09T17:04:01.083Z,100406.41
2022-09-09T17:06:30.147Z,100401.94
2022-09-09T17:08:58.691Z,100387.59
2022-09-09T17:11:26.260Z,100384.59
2022-09-09T17:13:53.835Z,100381.97
2022-09-09T17:16:22.901Z,100390.09
2022-09-09T17:18:51.767Z,100398.53
2022-09-09T17:21:23.135Z,100394.59
2022-09-09T17:23:50.735Z,100400.22
2022-09-09T17:26:20.019Z,100399.22
2022-09-09T17:28:47.182Z,100401.09
2022-09-09T17:31:17.560Z,100383.88
2022-09-09T17:33:47.369Z,100379.88
2022-09-09T17:36:17.274Z,100380.81
2022-09-09T17:38:52.601Z,100382.38
2022-09-09T17:41:27.879Z,100381.34
2022-09-09T17:44:00.398Z,100378.69
2022-09-09T17:46:38.343Z,100383.25
2022-09-09T17:49:17.299Z,100392.44
2022-09-09T17:51:48.191Z,100384.59
2022-09-09T17:54:22.498Z,100392.63
2022-09-09T17:56:55.683Z,100391.28
2022-09-09T17:59:27.031Z,100401.16
2022-09-09T18:01:59.791Z,100393.63
2022-09-09T18:04:38.429Z,100392.78
2022-09-09T18:07:09.548Z,100395.28
2022-09-09T18:09:57.515Z,100402.25
2022-09-09T18:12:25.998Z,100402.41
2022-09-09T18:14:57.166Z,100406.25
2022-09-09T18:17:30.871Z,100416.28
2022-09-09T18:20:01.179Z,100413.69
2022-09-09T18:22:32.107Z,100414.34
2022-09-09T18:25:07.653Z,100425.53
2022-09-09T18:27:46.273Z,100425.38
2022-09-09T18:30:14.857Z,100435.84
2022-09-09T18:32:48.456Z,100438.34
2022-09-09T18:35:21.442Z,100443.78
2022-09-09T18:38:01.715Z,100444.56
2022-09-09T18:40:38.180Z,100451.50
2022-09-09T18:43:16.293Z,100461.78
2022-09-09T18:45:46.726Z,100463.81
2022-09-09T18:48:18.723Z,100463.22
2022-09-09T18:51:00.680Z,100462.47
2022-09-09T18:53:34.281Z,100470.94
2022-09-09T18:56:10.243Z,100475.13
2022-09-09T18:58:45.478Z,100473.94
2022-09-09T19:01:18.857Z,100475.69
2022-09-09T19:03:49.818Z,100493.69
2022-09-09T19:06:23.921Z,100484.66
2022-09-09T19:09:03.827Z,100472.59
2022-09-09T19:11:39.628Z,100473.31
2022-09-09T19:14:21.230Z,100481.31
2022-09-09T19:16:59.204Z,100476.41
2022-09-09T19:19:33.339Z,100474.41
2022-09-09T19:22:02.023Z,100479.38
2022-09-09T19:24:35.214Z,100482.47
2022-09-09T19:27:13.257Z,100478.13
2022-09-09T19:29:48.541Z,100489.78
2022-09-09T19:35:12.151Z,100490.81
2022-09-09T19:37:51.183Z,100485.94
2022-09-09T19:40:22.937Z,100486.38
2022-09-09T19:42:54.873Z,100482.31
2022-09-09T19:45:26.148Z,100486.81
2022-09-09T19:48:03.107Z,100492.38
2022-09-09T19:50:38.995Z,100490.16
2022-09-09T19:53:12.995Z,100490.06
2022-09-09T19:55:51.720Z,100485.03
2022-09-09T19:58:25.395Z,100482.91
2022-09-09T20:01:00.114Z,100494.44
2022-09-09T20:03:33.935Z,100487.22
2022-09-09T20:06:08.782Z,100491.25
2022-09-09T20:08:42.467Z,100495.47
2022-09-09T20:11:11.704Z,100498.28
2022-09-09T20:13:47.541Z,100499.41
2022-09-09T20:16:19.944Z,100492.41
2022-09-09T20:19:07.315Z,100506.16
2022-09-09T20:21:47.733Z,100500.13
2022-09-09T20:24:24.573Z,100496.47
2022-09-09T20:27:02.069Z,100502.22
2022-09-09T20:29:33.829Z,100508.69
2022-09-09T20:32:18.669Z,100503.78
2022-09-09T20:34:51.167Z,100491.69
2022-09-09T20:37:40.334Z,100496.19
2022-09-09T20:40:19.232Z,100493.63
2022-09-09T20:42:58.163Z,100493.94
2022-09-09T20:45:31.867Z,100485.06
2022-09-09T20:48:00.498Z,100479.63
2022-09-09T20:50:46.667Z,100464.19
2022-09-09T20:53:26.519Z,100470.34
2022-09-09T20:56:01.554Z,100467.56
2022-09-09T20:58:40.986Z,100463.63
2022-09-09T21:01:17.061Z,100461.53
2022-09-09T21:03:49.707Z,100454.09
2022-09-09T21:06:23.502Z,100452.69
2022-09-09T21:09:04.380Z,100456.06
2022-09-09T21:11:33.506Z,100450.31
2022-09-09T21:14:07.927Z,100458.59
2022-09-09T21:16:37.520Z,100458.84
2022-09-09T21:19:07.323Z,100462.50
2022-09-09T21:21:36.929Z,100456.28
2022-09-09T21:24:08.282Z,100461.34
2022-09-09T21:26:45.477Z,100455.34
2022-09-09T21:29:13.557Z,100460.34
2022-09-09T21:31:44.015Z,100456.59
2022-09-09T21:34:15.291Z,100455.75
2022-09-09T21:36:42.361Z,100460.19
2022-09-09T21:39:09.507Z,100453.91
2022-09-09T21:41:36.939Z,100471.69
2022-09-09T21:44:04.147Z,100465.81
2022-09-09T21:46:31.522Z,100471.25
2022-09-09T21:48:58.867Z,100481.44
2022-09-09T21:51:25.984Z,100484.25
2022-09-09T21:53:56.106Z,100482.00
2022-09-09T21:56:23.595Z,100481.13
2022-09-09T21:58:55.822Z,100480.97
2022-09-09T22:01:24.893Z,100481.69
2022-09-09T22:03:52.212Z,100481.13
2022-09-09T22:06:19.486Z,100476.91
2022-09-09T22:08:46.748Z,100482.16
2022-09-09T22:11:19.431Z,100480.88
2022-09-09T22:13:46.529Z,100475.66
2022-09-09T22:16:16.658Z,100483.78
2022-09-09T22:18:44.091Z,100475.22
2022-09-09T22:21:17.065Z,100478.56
2022-09-09T22:23:46.760Z,100483.03
2022-09-09T22:26:15.219Z,100480.50
2022-09-09T22:28:42.307Z,100477.41
2022-09-09T22:31:09.461Z,100477.06
2022-09-09T22:33:37.359Z,100471.75
2022-09-09T22:36:05.055Z,100468.53
2022-09-09T22:38:36.293Z,100469.38
2022-09-09T22:41:04.382Z,100466.59
2022-09-09T22:43:35.036Z,100474.69
2022-09-09T22:46:03.114Z,100468.09
2022-09-09T22:48:33.876Z,100468.78
2022-09-09T22:51:08.588Z,100467.13
2022-09-09T22:53:36.124Z,100471.44
2022-09-09T22:56:07.063Z,100467.97
2022-09-09T22:58:36.534Z,100459.16
2022-09-09T23:01:30.478Z,100467.97
2022-09-09T23:04:02.709Z,100468.22
2022-09-09T23:06:30.160Z,100479.66
2022-09-09T23:09:01.860Z,100482.03
2022-09-09T23:11:32.295Z,100472.94
2022-09-09T23:14:01.539Z,100467.50
2022-09-09T23:16:29.768Z,100461.47
2022-09-09T23:18:56.888Z,100457.53
2022-09-09T23:21:26.192Z,100456.09
2022-09-09T23:23:54.203Z,100457.31
2022-09-09T23:26:22.163Z,100456.88
2022-09-09T23:28:51.784Z,100456.75
2022-09-09T23:31:22.631Z,100451.56
2022-09-09T23:33:49.814Z,100452.22
2022-09-09T23:36:19.169Z,100447.75
2022-09-09T23:38:47.437Z,100462.44
2022-09-09T23:41:20.935Z,100457.47
2022-09-09T23:43:48.992Z,100455.50
2022-09-09T23:46:19.446Z,100455.06
2022-09-09T23:48:51.521Z,100454.38
2022-09-09T23:51:23.597Z,100448.91
2022-09-09T23:53:56.789Z,100452.16
2022-09-09T23:56:26.315Z,100448.78
2022-09-09T23:58:53.595Z,100446.41
